Terminal Aerodrome Forecast
Issued by NWS Flagstaff, AZ

Home | Current Version | Previous Version | Text Only | Print | Product List | Glossary On
Versions: 1 2 3 4 5 6 7 8 9 10 11 12 13 14
000
FTUS45 KFGZ 310536
TAFFLG
TAF
KFLG 310536Z 3106/0106 VRB04KT P6SM FEW080 SCT200
     FM311900 21008KT P6SM VCSH BKN060
      TEMPO 3119/3123 VRB15G25KT TSRA BKN040CB OVC060
     FM010300 VRB04KT P6SM SCT060 BKN100=

USA.gov is the U.S. government's official web portal to all federal, state and local government web resources and services.